createdAt,value
2023-02-17T00:00:18.042Z,-85.00
2023-02-17T00:01:18.909Z,-85.00
2023-02-17T00:02:20.043Z,-85.00
2023-02-17T00:03:20.408Z,-85.00
2023-02-17T00:04:20.942Z,-93.00
2023-02-17T00:05:21.641Z,-90.00
2023-02-17T00:06:22.001Z,-85.00
2023-02-17T00:07:22.986Z,-85.00
2023-02-17T00:08:23.317Z,-86.00
2023-02-17T00:09:23.584Z,-86.00
2023-02-17T00:10:23.874Z,-85.00
2023-02-17T00:11:24.218Z,-86.00
2023-02-17T00:12:24.655Z,-90.00
2023-02-17T00:13:25.193Z,-92.00
2023-02-17T00:14:25.920Z,-86.00
2023-02-17T00:14:34.571Z,-85.00
2023-02-17T00:15:35.078Z,-84.00
2023-02-17T00:16:35.604Z,-85.00
2023-02-17T00:17:36.434Z,-86.00
2023-02-17T00:18:36.897Z,-93.00
2023-02-17T00:19:37.706Z,-90.00
2023-02-17T00:20:38.332Z,-85.00
2023-02-17T00:21:39.058Z,-86.00
2023-02-17T00:22:39.725Z,-94.00
2023-02-17T00:23:40.276Z,-86.00
2023-02-17T00:24:40.563Z,-86.00
2023-02-17T00:25:40.921Z,-85.00
2023-02-17T00:26:41.544Z,-85.00
2023-02-17T00:27:41.798Z,-85.00
2023-02-17T00:28:42.420Z,-85.00
2023-02-17T00:29:42.609Z,-85.00
2023-02-17T00:30:43.040Z,-86.00
2023-02-17T00:31:44.109Z,-92.00
2023-02-17T00:32:43.926Z,-87.00
2023-02-17T00:33:44.656Z,-91.00
2023-02-17T00:34:45.123Z,-84.00
2023-02-17T00:35:45.447Z,-84.00
2023-02-17T00:36:45.785Z,-83.00
2023-02-17T00:37:46.612Z,-85.00
2023-02-17T00:38:46.746Z,-85.00
2023-02-17T00:39:47.046Z,-85.00
2023-02-17T00:40:47.991Z,-85.00
2023-02-17T00:41:48.716Z,-84.00
2023-02-17T00:42:49.260Z,-85.00
2023-02-17T00:43:49.427Z,-84.00
2023-02-17T00:44:49.708Z,-86.00
2023-02-17T00:45:50.000Z,-85.00
2023-02-17T00:46:50.900Z,-95.00
2023-02-17T00:47:50.716Z,-86.00
2023-02-17T00:48:51.155Z,-85.00
2023-02-17T00:48:59.780Z,-83.00
2023-02-17T00:50:00.406Z,-85.00
2023-02-17T00:51:00.544Z,-85.00
2023-02-17T00:52:00.996Z,-86.00
2023-02-17T00:53:01.265Z,-86.00
2023-02-17T00:54:01.787Z,-86.00
2023-02-17T00:55:02.251Z,-85.00
2023-02-17T00:56:03.014Z,-84.00
2023-02-17T00:57:03.662Z,-85.00
2023-02-17T00:58:03.722Z,-85.00
2023-02-17T00:59:04.302Z,-86.00
2023-02-17T01:00:04.586Z,-86.00
2023-02-17T01:01:04.743Z,-86.00
2023-02-17T01:02:04.967Z,-85.00
2023-02-17T01:03:05.303Z,-85.00
2023-02-17T01:04:05.618Z,-85.00
2023-02-17T01:05:05.848Z,-85.00
2023-02-17T01:06:06.841Z,-85.00
2023-02-17T01:07:06.705Z,-85.00
2023-02-17T01:08:07.452Z,-85.00
2023-02-17T01:09:07.995Z,-85.00
2023-02-17T01:10:08.184Z,-86.00
2023-02-17T01:11:08.492Z,-83.00
2023-02-17T01:12:08.803Z,-85.00
2023-02-17T01:13:09.416Z,-84.00
2023-02-17T01:14:10.074Z,-83.00
2023-02-17T01:15:10.929Z,-86.00
2023-02-17T01:16:11.352Z,-85.00
2023-02-17T01:17:11.767Z,-88.00
2023-02-17T01:18:13.722Z,-94.00
2023-02-17T01:19:13.305Z,-93.00
2023-02-17T01:20:13.795Z,-94.00
2023-02-17T01:21:14.478Z,-94.00
2023-02-17T01:22:15.189Z,-95.00
2023-02-17T01:23:15.540Z,-95.00
2023-02-17T01:23:27.690Z,-94.00
2023-02-17T01:24:28.258Z,-94.00
2023-02-17T01:25:28.795Z,-94.00
2023-02-17T01:26:29.206Z,-94.00
2023-02-17T01:27:29.880Z,-94.00
2023-02-17T01:28:30.204Z,-94.00
2023-02-17T01:29:30.616Z,-95.00
2023-02-17T01:30:31.067Z,-94.00
2023-02-17T01:31:31.301Z,-86.00
2023-02-17T01:32:31.772Z,-86.00
2023-02-17T01:33:31.774Z,-85.00
2023-02-17T01:34:32.130Z,-86.00
2023-02-17T01:35:33.959Z,-83.00
2023-02-17T01:36:33.359Z,-83.00
2023-02-17T01:37:33.779Z,-83.00
2023-02-17T01:38:34.469Z,-85.00
2023-02-17T01:39:34.477Z,-83.00
2023-02-17T01:40:35.816Z,-86.00
2023-02-17T01:41:35.078Z,-85.00
2023-02-17T01:42:35.969Z,-86.00
2023-02-17T01:43:36.584Z,-85.00
2023-02-17T01:44:37.415Z,-85.00
2023-02-17T01:45:37.934Z,-84.00
2023-02-17T01:46:38.853Z,-85.00
2023-02-17T01:47:39.477Z,-84.00
2023-02-17T01:48:40.368Z,-85.00
2023-02-17T01:49:41.160Z,-86.00
2023-02-17T01:50:42.070Z,-86.00
2023-02-17T01:51:42.817Z,-86.00
2023-02-17T01:52:43.750Z,-86.00
2023-02-17T01:53:44.580Z,-85.00
2023-02-17T01:54:45.068Z,-86.00
2023-02-17T01:55:45.895Z,-85.00
2023-02-17T01:55:54.584Z,-86.00
2023-02-17T01:56:55.157Z,-86.00
2023-02-17T01:57:55.732Z,-86.00
2023-02-17T01:58:56.483Z,-87.00
2023-02-17T01:59:57.410Z,-86.00
2023-02-17T02:00:58.285Z,-86.00
2023-02-17T02:01:58.535Z,-87.00
2023-02-17T02:02:59.309Z,-85.00
2023-02-17T02:04:00.177Z,-85.00
2023-02-17T02:05:00.374Z,-86.00
2023-02-17T02:06:00.949Z,-87.00
2023-02-17T02:07:01.490Z,-87.00
2023-02-17T02:08:01.918Z,-86.00
2023-02-17T02:09:02.603Z,-86.00
2023-02-17T02:10:03.100Z,-86.00
2023-02-17T02:11:03.727Z,-86.00
2023-02-17T02:12:04.617Z,-86.00
2023-02-17T02:13:05.366Z,-86.00
2023-02-17T02:14:05.929Z,-87.00
2023-02-17T02:15:06.648Z,-86.00
2023-02-17T02:16:07.828Z,-86.00
2023-02-17T02:17:07.971Z,-84.00
2023-02-17T02:18:08.116Z,-86.00
2023-02-17T02:19:08.998Z,-87.00
2023-02-17T02:20:09.882Z,-86.00
2023-02-17T02:21:10.478Z,-86.00
2023-02-17T02:22:11.124Z,-86.00
2023-02-17T02:23:12.059Z,-86.00
2023-02-17T02:24:12.902Z,-86.00
2023-02-17T02:25:13.506Z,-85.00
2023-02-17T02:26:14.153Z,-86.00
2023-02-17T02:27:14.924Z,-86.00
2023-02-17T02:28:14.933Z,-86.00
2023-02-17T02:29:15.768Z,-86.00
2023-02-17T02:30:16.568Z,-86.00
2023-02-17T02:30:25.179Z,-85.00
2023-02-17T02:31:25.975Z,-85.00
2023-02-17T02:32:26.481Z,-86.00
2023-02-17T02:33:27.211Z,-85.00
2023-02-17T02:34:28.131Z,-85.00
2023-02-17T02:35:28.880Z,-86.00
2023-02-17T02:36:29.814Z,-86.00
2023-02-17T02:37:30.569Z,-86.00
2023-02-17T02:38:31.317Z,-85.00
2023-02-17T02:39:32.080Z,-86.00
2023-02-17T02:40:32.436Z,-86.00
2023-02-17T02:41:32.625Z,-84.00
2023-02-17T02:42:33.390Z,-85.00
2023-02-17T02:43:34.190Z,-85.00
2023-02-17T02:44:34.947Z,-85.00
2023-02-17T02:45:35.712Z,-86.00
2023-02-17T02:46:36.432Z,-85.00
2023-02-17T02:47:37.022Z,-86.00
2023-02-17T02:48:37.611Z,-86.00
2023-02-17T02:49:38.521Z,-86.00
2023-02-17T02:50:39.207Z,-85.00
2023-02-17T02:51:39.851Z,-85.00
2023-02-17T02:52:40.500Z,-86.00
2023-02-17T02:53:41.169Z,-86.00
2023-02-17T02:54:42.046Z,-86.00
2023-02-17T02:55:42.749Z,-85.00
2023-02-17T02:56:43.545Z,-85.00
2023-02-17T02:57:44.314Z,-85.00
2023-02-17T02:58:44.446Z,-86.00
2023-02-17T02:59:45.087Z,-85.00
2023-02-17T03:00:45.165Z,-85.00
2023-02-17T03:01:45.706Z,-86.00
2023-02-17T03:02:46.380Z,-85.00
2023-02-17T03:03:47.181Z,-85.00
2023-02-17T03:04:47.970Z,-85.00
2023-02-17T03:04:56.637Z,-84.00
2023-02-17T03:05:57.493Z,-86.00
2023-02-17T03:06:58.299Z,-85.00
2023-02-17T03:07:58.878Z,-86.00
2023-02-17T03:08:59.588Z,-86.00
2023-02-17T03:10:00.473Z,-85.00
2023-02-17T03:11:01.491Z,-85.00
2023-02-17T03:12:02.382Z,-85.00
2023-02-17T03:13:02.617Z,-85.00
2023-02-17T03:14:03.401Z,-86.00
2023-02-17T03:15:04.229Z,-85.00
2023-02-17T03:16:05.260Z,-85.00
2023-02-17T03:17:05.536Z,-84.00
2023-02-17T03:18:06.383Z,-85.00
2023-02-17T03:19:07.309Z,-85.00
2023-02-17T03:20:08.259Z,-85.00
2023-02-17T03:21:08.980Z,-84.00
2023-02-17T03:22:09.366Z,-85.00
2023-02-17T03:23:10.197Z,-86.00
2023-02-17T03:24:10.857Z,-85.00
2023-02-17T03:25:11.072Z,-85.00
2023-02-17T03:26:11.710Z,-85.00
2023-02-17T03:27:12.549Z,-85.00
2023-02-17T03:28:13.344Z,-85.00
2023-02-17T03:29:14.041Z,-85.00
2023-02-17T03:30:14.763Z,-85.00
2023-02-17T03:31:15.471Z,-86.00
2023-02-17T03:32:15.514Z,-85.00
2023-02-17T03:33:15.932Z,-85.00
2023-02-17T03:34:16.414Z,-85.00
2023-02-17T03:35:16.961Z,-86.00
2023-02-17T03:36:17.486Z,-85.00
2023-02-17T03:37:18.375Z,-85.00
2023-02-17T03:38:19.018Z,-86.00
2023-02-17T03:39:19.657Z,-85.00
2023-02-17T03:39:28.344Z,-85.00
2023-02-17T03:40:29.033Z,-87.00
2023-02-17T03:41:29.574Z,-86.00
2023-02-17T03:42:29.776Z,-86.00
2023-02-17T03:43:30.489Z,-87.00
2023-02-17T03:44:31.324Z,-86.00
2023-02-17T03:45:32.092Z,-86.00
2023-02-17T03:46:32.772Z,-84.00
2023-02-17T03:47:33.611Z,-86.00
2023-02-17T03:48:33.773Z,-86.00
2023-02-17T03:49:34.692Z,-86.00
2023-02-17T03:50:35.400Z,-86.00
2023-02-17T03:51:35.490Z,-87.00
2023-02-17T03:52:36.084Z,-86.00
2023-02-17T03:53:36.696Z,-87.00
2023-02-17T03:54:37.584Z,-87.00
2023-02-17T03:55:38.191Z,-85.00
2023-02-17T03:56:38.486Z,-86.00
2023-02-17T03:57:39.316Z,-84.00
2023-02-17T03:58:40.180Z,-84.00
2023-02-17T03:59:41.174Z,-86.00
2023-02-17T04:00:42.061Z,-86.00
2023-02-17T04:01:42.897Z,-84.00
2023-02-17T04:02:44.299Z,-85.00
2023-02-17T04:03:44.648Z,-86.00
2023-02-17T04:04:44.944Z,-85.00
2023-02-17T04:05:45.810Z,-85.00
2023-02-17T04:06:46.788Z,-85.00
2023-02-17T04:07:46.922Z,-84.00
2023-02-17T04:08:47.735Z,-85.00
2023-02-17T04:09:48.518Z,-85.00
2023-02-17T04:10:49.351Z,-85.00
2023-02-17T04:11:50.291Z,-85.00
2023-02-17T04:12:50.612Z,-85.00
2023-02-17T04:13:51.222Z,-86.00
2023-02-17T04:13:59.974Z,-84.00
2023-02-17T04:15:00.533Z,-83.00
2023-02-17T04:16:01.408Z,-85.00
2023-02-17T04:17:01.978Z,-85.00
2023-02-17T04:18:02.839Z,-86.00
2023-02-17T04:19:03.605Z,-85.00
2023-02-17T04:20:04.449Z,-85.00
2023-02-17T04:21:04.545Z,-85.00
2023-02-17T04:22:05.367Z,-85.00
2023-02-17T04:23:06.362Z,-85.00
2023-02-17T04:24:07.326Z,-84.00
2023-02-17T04:25:08.080Z,-83.00
2023-02-17T04:26:09.157Z,-85.00
2023-02-17T04:27:09.710Z,-85.00
2023-02-17T04:28:10.489Z,-84.00
2023-02-17T04:29:10.642Z,-85.00
2023-02-17T04:30:12.479Z,-86.00
2023-02-17T04:31:11.776Z,-84.00
2023-02-17T04:32:12.399Z,-84.00
2023-02-17T04:33:13.191Z,-85.00
2023-02-17T04:34:13.258Z,-85.00
2023-02-17T04:35:14.099Z,-84.00
2023-02-17T04:36:14.718Z,-84.00
2023-02-17T04:37:15.191Z,-85.00
2023-02-17T04:38:15.277Z,-85.00
2023-02-17T04:39:15.762Z,-84.00
2023-02-17T04:40:16.642Z,-84.00
2023-02-17T04:41:16.848Z,-84.00
2023-02-17T04:42:17.567Z,-85.00
2023-02-17T04:43:17.574Z,-84.00
2023-02-17T04:44:18.346Z,-85.00
2023-02-17T04:45:19.086Z,-85.00
2023-02-17T04:46:20.017Z,-84.00
2023-02-17T04:47:20.810Z,-85.00
2023-02-17T04:48:21.586Z,-84.00
2023-02-17T04:48:30.250Z,-87.00
2023-02-17T04:49:30.418Z,-85.00
2023-02-17T04:50:31.175Z,-86.00
2023-02-17T04:51:31.786Z,-84.00
2023-02-17T04:52:31.986Z,-84.00
2023-02-17T04:53:32.908Z,-84.00
2023-02-17T04:54:32.838Z,-84.00
2023-02-17T04:55:33.470Z,-86.00
2023-02-17T04:56:34.024Z,-85.00
2023-02-17T04:57:35.656Z,-85.00
2023-02-17T04:58:35.212Z,-84.00
2023-02-17T04:59:36.072Z,-85.00
2023-02-17T05:00:37.110Z,-84.00
2023-02-17T05:01:38.128Z,-86.00
2023-02-17T05:02:38.967Z,-83.00
2023-02-17T05:03:39.585Z,-82.00
2023-02-17T05:04:40.507Z,-84.00
2023-02-17T05:05:41.205Z,-84.00
2023-02-17T05:06:41.821Z,-85.00
2023-02-17T05:07:42.577Z,-84.00
2023-02-17T05:08:42.966Z,-84.00
2023-02-17T05:09:43.478Z,-85.00
2023-02-17T05:10:44.265Z,-85.00
2023-02-17T05:11:44.737Z,-84.00
2023-02-17T05:12:45.625Z,-86.00
2023-02-17T05:13:46.387Z,-83.00
2023-02-17T05:14:46.695Z,-84.00
2023-02-17T05:15:47.262Z,-84.00
2023-02-17T05:15:55.968Z,-85.00
2023-02-17T05:16:56.005Z,-84.00
2023-02-17T05:17:56.584Z,-85.00
2023-02-17T05:18:57.426Z,-83.00
2023-02-17T05:19:58.240Z,-86.00
2023-02-17T05:20:58.937Z,-84.00
2023-02-17T05:21:59.520Z,-84.00
2023-02-17T05:22:59.635Z,-84.00
2023-02-17T05:23:59.786Z,-84.00
2023-02-17T05:25:00.569Z,-85.00
2023-02-17T05:26:01.374Z,-86.00
2023-02-17T05:27:02.281Z,-84.00
2023-02-17T05:28:03.004Z,-84.00
2023-02-17T05:29:03.543Z,-86.00
2023-02-17T05:30:04.247Z,-86.00
2023-02-17T05:31:04.911Z,-83.00
2023-02-17T05:32:05.468Z,-85.00
2023-02-17T05:33:06.085Z,-86.00
2023-02-17T05:34:06.111Z,-85.00
2023-02-17T05:35:06.869Z,-85.00
2023-02-17T05:36:08.084Z,-86.00
2023-02-17T05:37:08.698Z,-86.00
2023-02-17T05:38:09.377Z,-85.00
2023-02-17T05:39:10.114Z,-86.00
2023-02-17T05:40:10.994Z,-85.00
2023-02-17T05:41:11.724Z,-85.00
2023-02-17T05:42:12.594Z,-86.00
2023-02-17T05:43:13.408Z,-84.00
2023-02-17T05:44:14.265Z,-86.00
2023-02-17T05:45:14.992Z,-86.00
2023-02-17T05:46:15.846Z,-85.00
2023-02-17T05:47:16.631Z,-86.00
2023-02-17T05:47:27.505Z,-83.00
2023-02-17T05:48:25.752Z,-85.00
2023-02-17T05:49:26.508Z,-86.00
2023-02-17T05:50:27.313Z,-85.00
2023-02-17T05:51:28.001Z,-85.00
2023-02-17T05:52:28.716Z,-86.00
2023-02-17T05:53:29.291Z,-85.00
2023-02-17T05:54:29.968Z,-85.00
2023-02-17T05:55:30.764Z,-85.00
2023-02-17T05:56:31.490Z,-84.00
2023-02-17T05:57:32.141Z,-86.00
2023-02-17T05:58:32.337Z,-85.00
2023-02-17T05:59:32.888Z,-88.00
2023-02-17T06:00:33.390Z,-85.00
2023-02-17T06:01:35.550Z,-85.00
2023-02-17T06:02:34.682Z,-85.00
2023-02-17T06:03:35.396Z,-85.00
2023-02-17T06:04:35.627Z,-85.00
2023-02-17T06:05:36.161Z,-86.00
2023-02-17T06:06:36.806Z,-85.00
2023-02-17T06:07:37.444Z,-85.00
2023-02-17T06:08:38.075Z,-85.00
2023-02-17T06:09:38.935Z,-86.00
2023-02-17T06:10:39.801Z,-84.00
2023-02-17T06:11:40.499Z,-84.00
2023-02-17T06:12:41.331Z,-86.00
2023-02-17T06:13:42.133Z,-85.00
2023-02-17T06:14:42.917Z,-85.00
2023-02-17T06:15:43.527Z,-86.00
2023-02-17T06:16:44.205Z,-87.00
2023-02-17T06:17:44.770Z,-88.00
2023-02-17T06:18:45.319Z,-85.00
2023-02-17T06:18:54.017Z,-84.00
2023-02-17T06:19:54.422Z,-86.00
2023-02-17T06:20:54.873Z,-85.00
2023-02-17T06:21:55.682Z,-84.00
2023-02-17T06:22:56.452Z,-85.00
2023-02-17T06:23:57.013Z,-85.00
2023-02-17T06:24:57.018Z,-84.00
2023-02-17T06:25:57.741Z,-84.00
2023-02-17T06:26:58.674Z,-85.00
2023-02-17T06:27:59.552Z,-85.00
2023-02-17T06:29:00.242Z,-84.00
2023-02-17T06:30:01.051Z,-83.00
2023-02-17T06:31:01.998Z,-83.00
2023-02-17T06:32:02.588Z,-84.00
2023-02-17T06:33:03.145Z,-85.00
2023-02-17T06:34:06.433Z,-84.00
2023-02-17T06:35:04.636Z,-86.00
2023-02-17T06:36:05.683Z,-84.00
2023-02-17T06:37:05.919Z,-84.00
2023-02-17T06:38:06.188Z,-84.00
2023-02-17T06:39:06.728Z,-83.00
2023-02-17T06:40:07.606Z,-90.00
2023-02-17T06:41:07.600Z,-90.00
2023-02-17T06:42:08.411Z,-84.00
2023-02-17T06:43:08.569Z,-84.00
2023-02-17T06:44:10.509Z,-84.00
2023-02-17T06:45:09.326Z,-82.00
2023-02-17T06:46:10.349Z,-83.00
2023-02-17T06:47:11.041Z,-84.00
2023-02-17T06:48:11.711Z,-83.00
2023-02-17T06:49:12.283Z,-83.00
2023-02-17T06:50:12.796Z,-82.00
2023-02-17T06:50:22.548Z,-84.00
2023-02-17T06:51:22.113Z,-84.00
2023-02-17T06:52:22.865Z,-83.00
2023-02-17T06:53:23.104Z,-84.00
2023-02-17T06:54:23.141Z,-84.00
2023-02-17T06:55:23.862Z,-87.00
2023-02-17T06:56:23.902Z,-84.00
2023-02-17T06:57:24.073Z,-85.00
2023-02-17T06:58:24.833Z,-83.00
2023-02-17T06:59:25.769Z,-83.00
2023-02-17T07:00:26.443Z,-85.00
2023-02-17T07:01:26.924Z,-85.00
2023-02-17T07:02:27.117Z,-84.00
2023-02-17T07:03:27.682Z,-83.00
2023-02-17T07:04:28.262Z,-86.00
2023-02-17T07:05:28.752Z,-82.00
2023-02-17T07:06:28.786Z,-83.00
2023-02-17T07:07:29.523Z,-83.00
2023-02-17T07:08:30.175Z,-83.00
2023-02-17T07:09:30.917Z,-83.00
2023-02-17T07:10:31.226Z,-84.00
2023-02-17T07:11:31.824Z,-84.00
2023-02-17T07:12:32.420Z,-83.00
2023-02-17T07:13:32.921Z,-84.00
2023-02-17T07:14:33.532Z,-83.00
2023-02-17T07:15:34.496Z,-84.00
2023-02-17T07:16:35.136Z,-85.00
2023-02-17T07:17:35.617Z,-85.00
2023-02-17T07:18:36.368Z,-85.00
2023-02-17T07:19:36.910Z,-84.00
2023-02-17T07:20:39.266Z,-85.00
2023-02-17T07:21:38.226Z,-85.00
2023-02-17T07:21:46.923Z,-85.00
2023-02-17T07:22:47.028Z,-85.00
2023-02-17T07:23:47.275Z,-83.00
2023-02-17T07:24:47.900Z,-85.00
2023-02-17T07:25:48.194Z,-84.00
2023-02-17T07:26:48.330Z,-84.00
2023-02-17T07:27:49.006Z,-83.00
2023-02-17T07:28:49.040Z,-83.00
2023-02-17T07:29:49.727Z,-83.00
2023-02-17T07:30:50.647Z,-84.00
2023-02-17T07:31:51.638Z,-85.00
2023-02-17T07:32:52.088Z,-84.00
2023-02-17T07:33:52.533Z,-85.00
2023-02-17T07:34:52.820Z,-83.00
2023-02-17T07:35:53.461Z,-83.00
2023-02-17T07:36:54.189Z,-84.00
2023-02-17T07:37:54.725Z,-83.00
2023-02-17T07:38:55.408Z,-84.00
2023-02-17T07:40:56.908Z,-86.00
2023-02-17T07:41:57.607Z,-82.00
2023-02-17T07:42:58.321Z,-84.00
2023-02-17T07:43:59.033Z,-84.00
2023-02-17T07:44:59.482Z,-85.00
2023-02-17T07:46:00.206Z,-87.00
2023-02-17T07:47:00.680Z,-84.00
2023-02-17T07:48:01.162Z,-86.00
2023-02-17T07:48:15.969Z,-85.00
2023-02-17T07:49:16.764Z,-85.00
2023-02-17T07:50:17.134Z,-84.00
2023-02-17T07:51:17.825Z,-86.00
2023-02-17T07:52:18.344Z,-84.00
2023-02-17T07:53:18.852Z,-84.00
2023-02-17T07:54:19.573Z,-84.00
2023-02-17T07:55:19.779Z,-85.00
2023-02-17T07:56:20.329Z,-85.00
2023-02-17T07:57:20.801Z,-85.00
2023-02-17T07:58:21.306Z,-84.00
2023-02-17T07:59:22.049Z,-85.00
2023-02-17T08:00:22.064Z,-85.00
2023-02-17T08:01:22.344Z,-84.00
2023-02-17T08:02:22.847Z,-82.00
2023-02-17T08:03:22.857Z,-87.00
2023-02-17T08:04:23.643Z,-83.00
2023-02-17T08:05:24.096Z,-83.00
2023-02-17T08:06:24.962Z,-86.00
2023-02-17T08:07:25.458Z,-84.00
2023-02-17T08:08:26.331Z,-84.00
2023-02-17T08:09:26.903Z,-86.00
2023-02-17T08:10:27.531Z,-84.00
2023-02-17T08:11:28.403Z,-85.00
2023-02-17T08:12:28.899Z,-85.00
2023-02-17T08:13:29.621Z,-84.00
2023-02-17T08:14:30.177Z,-84.00
2023-02-17T08:15:30.991Z,-85.00
2023-02-17T08:16:31.496Z,-85.00
2023-02-17T08:17:32.180Z,-85.00
2023-02-17T08:18:36.543Z,-85.00
2023-02-17T08:19:46.959Z,-86.00
2023-02-17T08:19:49.375Z,-85.00
2023-02-17T08:20:42.448Z,-86.00
2023-02-17T08:21:42.991Z,-84.00
2023-02-17T08:22:43.531Z,-85.00
2023-02-17T08:23:45.431Z,-86.00
2023-02-17T08:24:44.800Z,-85.00
2023-02-17T08:25:44.469Z,-84.00
2023-02-17T08:26:45.088Z,-86.00
2023-02-17T08:27:45.752Z,-84.00
2023-02-17T08:28:46.222Z,-82.00
2023-02-17T08:29:46.805Z,-83.00
2023-02-17T08:30:47.421Z,-82.00
2023-02-17T08:31:47.966Z,-84.00
2023-02-17T08:32:48.379Z,-83.00
2023-02-17T08:33:49.045Z,-83.00
2023-02-17T08:34:49.820Z,-85.00
2023-02-17T08:35:50.344Z,-86.00
2023-02-17T08:36:50.823Z,-85.00
2023-02-17T08:37:51.263Z,-85.00
2023-02-17T08:38:51.768Z,-84.00
2023-02-17T08:39:52.360Z,-84.00
2023-02-17T08:40:52.881Z,-85.00
2023-02-17T08:41:53.527Z,-84.00
2023-02-17T08:42:54.383Z,-84.00
2023-02-17T08:43:55.043Z,-86.00
2023-02-17T08:44:55.989Z,-85.00
2023-02-17T08:45:56.756Z,-84.00
2023-02-17T08:46:57.602Z,-84.00
2023-02-17T08:47:57.656Z,-84.00
2023-02-17T08:48:58.453Z,-87.00
2023-02-17T08:49:58.841Z,-86.00
2023-02-17T08:50:59.350Z,-85.00
2023-02-17T08:51:59.900Z,-85.00
2023-02-17T08:52:12.638Z,-83.00
2023-02-17T08:53:12.151Z,-84.00
2023-02-17T08:54:12.564Z,-85.00
2023-02-17T08:55:13.098Z,-84.00
2023-02-17T08:56:13.817Z,-84.00
2023-02-17T08:57:14.683Z,-86.00
2023-02-17T08:58:15.352Z,-83.00
2023-02-17T08:59:15.958Z,-84.00
2023-02-17T09:00:16.507Z,-85.00
2023-02-17T09:01:17.034Z,-83.00
2023-02-17T09:02:17.532Z,-84.00
2023-02-17T09:03:18.126Z,-86.00
2023-02-17T09:04:18.865Z,-85.00
2023-02-17T09:05:19.372Z,-86.00
2023-02-17T09:06:19.841Z,-85.00
2023-02-17T09:07:20.446Z,-86.00
2023-02-17T09:08:21.090Z,-85.00
2023-02-17T09:09:21.662Z,-86.00
2023-02-17T09:10:22.098Z,-86.00
2023-02-17T09:11:22.793Z,-86.00
2023-02-17T09:12:23.337Z,-88.00
2023-02-17T09:13:23.823Z,-85.00
2023-02-17T09:14:24.524Z,-88.00
2023-02-17T09:15:25.182Z,-88.00
2023-02-17T09:16:26.122Z,-85.00
2023-02-17T09:17:26.669Z,-87.00
2023-02-17T09:18:27.631Z,-89.00
2023-02-17T09:19:28.449Z,-87.00
2023-02-17T09:19:36.717Z,-85.00
2023-02-17T09:20:37.296Z,-84.00
2023-02-17T09:21:37.961Z,-85.00
2023-02-17T09:22:38.805Z,-87.00
2023-02-17T09:23:39.604Z,-85.00
2023-02-17T09:24:40.130Z,-82.00
2023-02-17T09:25:40.763Z,-86.00
2023-02-17T09:26:41.254Z,-83.00
2023-02-17T09:27:41.851Z,-85.00
2023-02-17T09:28:42.421Z,-87.00
2023-02-17T09:29:43.133Z,-83.00
2023-02-17T09:30:43.809Z,-84.00
2023-02-17T09:31:44.546Z,-86.00
2023-02-17T09:32:45.387Z,-86.00
2023-02-17T09:33:45.870Z,-86.00
2023-02-17T09:34:46.369Z,-85.00
2023-02-17T09:35:46.666Z,-92.00
2023-02-17T09:36:46.927Z,-85.00
2023-02-17T09:37:47.544Z,-87.00
2023-02-17T09:38:47.970Z,-89.00
2023-02-17T09:39:48.540Z,-84.00
2023-02-17T09:40:48.580Z,-87.00
2023-02-17T09:41:49.139Z,-87.00
2023-02-17T09:42:50.003Z,-87.00
2023-02-17T09:43:50.406Z,-85.00
2023-02-17T09:44:50.984Z,-87.00
2023-02-17T09:45:51.761Z,-87.00
2023-02-17T09:47:01.436Z,-85.00
2023-02-17T09:47:52.956Z,-89.00
2023-02-17T09:48:53.509Z,-84.00
2023-02-17T09:49:54.340Z,-85.00
2023-02-17T09:50:55.060Z,-84.00
2023-02-17T09:51:55.875Z,-86.00
2023-02-17T09:52:56.592Z,-84.00
2023-02-17T09:53:05.898Z,-86.00
2023-02-17T09:54:06.689Z,-85.00
2023-02-17T09:55:06.853Z,-87.00
2023-02-17T09:56:08.074Z,-85.00
2023-02-17T09:57:08.411Z,-86.00
2023-02-17T09:58:09.280Z,-85.00
2023-02-17T09:59:10.039Z,-89.00
2023-02-17T10:00:10.593Z,-87.00
2023-02-17T10:01:11.438Z,-88.00
2023-02-17T10:02:12.107Z,-86.00
2023-02-17T10:03:14.062Z,-85.00
2023-02-17T10:04:14.251Z,-83.00
2023-02-17T10:05:13.833Z,-83.00
2023-02-17T10:06:14.442Z,-85.00
2023-02-17T10:07:14.986Z,-85.00
2023-02-17T10:08:14.995Z,-88.00
2023-02-17T10:09:15.562Z,-86.00
2023-02-17T10:10:16.119Z,-85.00
2023-02-17T10:11:16.736Z,-86.00
2023-02-17T10:12:17.376Z,-87.00
2023-02-17T10:13:17.808Z,-86.00
2023-02-17T10:14:18.470Z,-86.00
2023-02-17T10:15:18.542Z,-84.00
2023-02-17T10:16:20.233Z,-87.00
2023-02-17T10:17:20.402Z,-88.00
2023-02-17T10:18:21.300Z,-89.00
2023-02-17T10:19:22.080Z,-91.00
2023-02-17T10:20:22.556Z,-90.00
2023-02-17T10:21:23.102Z,-88.00
2023-02-17T10:22:23.954Z,-89.00
2023-02-17T10:23:24.991Z,-89.00
2023-02-17T10:24:25.242Z,-90.00
2023-02-17T10:24:34.120Z,-89.00
2023-02-17T10:25:34.676Z,-91.00
2023-02-17T10:26:35.359Z,-89.00
2023-02-17T10:27:35.552Z,-88.00
2023-02-17T10:28:36.359Z,-89.00
2023-02-17T10:29:36.469Z,-87.00
2023-02-17T10:30:37.222Z,-89.00
2023-02-17T10:31:38.279Z,-89.00
2023-02-17T10:32:38.778Z,-93.00
2023-02-17T10:33:39.122Z,-88.00
2023-02-17T10:34:39.848Z,-88.00
2023-02-17T10:35:40.119Z,-89.00
2023-02-17T10:36:40.350Z,-86.00
2023-02-17T10:37:40.983Z,-90.00
2023-02-17T10:38:41.063Z,-88.00
2023-02-17T10:39:41.841Z,-90.00
2023-02-17T10:40:41.905Z,-89.00
2023-02-17T10:41:42.628Z,-90.00
2023-02-17T10:42:43.307Z,-85.00
2023-02-17T10:43:44.128Z,-90.00
2023-02-17T10:44:44.749Z,-88.00
2023-02-17T10:45:45.391Z,-86.00
2023-02-17T10:46:46.137Z,-88.00
2023-02-17T10:47:46.709Z,-87.00
2023-02-17T10:48:47.121Z,-90.00
2023-02-17T10:49:47.826Z,-90.00
2023-02-17T10:50:48.004Z,-87.00
2023-02-17T10:51:48.300Z,-88.00
2023-02-17T10:52:48.374Z,-88.00
2023-02-17T10:53:49.134Z,-89.00
2023-02-17T10:54:49.785Z,-87.00
2023-02-17T10:54:58.535Z,-88.00
2023-02-17T10:55:59.389Z,-88.00
2023-02-17T10:57:00.093Z,-91.00
2023-02-17T10:58:00.893Z,-89.00
2023-02-17T10:59:01.494Z,-88.00
2023-02-17T11:00:02.134Z,-89.00
2023-02-17T11:01:02.522Z,-89.00
2023-02-17T11:02:03.125Z,-89.00
2023-02-17T11:03:03.823Z,-90.00
2023-02-17T11:04:04.702Z,-88.00
2023-02-17T11:05:05.704Z,-88.00
2023-02-17T11:06:05.696Z,-88.00
2023-02-17T11:07:05.995Z,-87.00
2023-02-17T11:08:06.670Z,-89.00
2023-02-17T11:09:07.328Z,-88.00
2023-02-17T11:10:07.392Z,-90.00
2023-02-17T11:11:08.146Z,-87.00
2023-02-17T11:12:09.013Z,-86.00
2023-02-17T11:13:09.176Z,-88.00
2023-02-17T11:14:10.069Z,-90.00
2023-02-17T11:15:10.913Z,-86.00
2023-02-17T11:16:14.206Z,-89.00
2023-02-17T11:17:12.373Z,-88.00
2023-02-17T11:18:13.172Z,-92.00
2023-02-17T11:19:13.807Z,-89.00
2023-02-17T11:20:14.552Z,-87.00
2023-02-17T11:21:16.354Z,-88.00
2023-02-17T11:22:16.176Z,-88.00
2023-02-17T11:23:16.284Z,-91.00
2023-02-17T11:24:17.050Z,-85.00
2023-02-17T11:25:17.897Z,-87.00
2023-02-17T11:26:18.736Z,-88.00
2023-02-17T11:27:19.692Z,-87.00
2023-02-17T11:27:30.799Z,-90.00
2023-02-17T11:28:31.419Z,-90.00
2023-02-17T11:29:32.257Z,-87.00
2023-02-17T11:30:33.178Z,-90.00
2023-02-17T11:31:34.006Z,-89.00
2023-02-17T11:32:34.624Z,-91.00
2023-02-17T11:33:35.526Z,-89.00
2023-02-17T11:34:35.579Z,-89.00
2023-02-17T11:35:36.294Z,-90.00
2023-02-17T11:36:36.982Z,-89.00
2023-02-17T11:37:37.760Z,-89.00
2023-02-17T11:38:38.545Z,-89.00
2023-02-17T11:39:39.490Z,-88.00
2023-02-17T11:40:40.228Z,-90.00
2023-02-17T11:41:41.222Z,-88.00
2023-02-17T11:42:41.732Z,-89.00
2023-02-17T11:43:42.459Z,-89.00
2023-02-17T11:44:43.452Z,-87.00
2023-02-17T11:45:44.186Z,-88.00
2023-02-17T11:46:44.917Z,-88.00
2023-02-17T11:47:45.110Z,-89.00
2023-02-17T11:48:45.909Z,-89.00
2023-02-17T11:49:46.732Z,-87.00
2023-02-17T11:50:47.410Z,-90.00
2023-02-17T11:51:48.081Z,-89.00
2023-02-17T11:52:48.883Z,-90.00
2023-02-17T11:53:49.535Z,-90.00
2023-02-17T11:54:50.243Z,-91.00
2023-02-17T11:55:50.976Z,-89.00
2023-02-17T11:56:51.739Z,-90.00
2023-02-17T11:57:52.563Z,-91.00
2023-02-17T11:58:01.338Z,-90.00
2023-02-17T11:59:02.159Z,-88.00
2023-02-17T12:00:02.882Z,-87.00
2023-02-17T12:01:03.540Z,-89.00
2023-02-17T12:02:04.347Z,-90.00
2023-02-17T12:03:04.701Z,-90.00
2023-02-17T12:04:05.322Z,-90.00
2023-02-17T12:05:06.306Z,-89.00
2023-02-17T12:06:07.175Z,-88.00
2023-02-17T12:07:07.140Z,-88.00
2023-02-17T12:08:07.765Z,-90.00
2023-02-17T12:09:08.411Z,-89.00
2023-02-17T12:10:08.553Z,-88.00
2023-02-17T12:11:09.073Z,-89.00
2023-02-17T12:12:09.860Z,-87.00
2023-02-17T12:13:10.527Z,-88.00
2023-02-17T12:14:10.818Z,-89.00
2023-02-17T12:15:11.730Z,-87.00
2023-02-17T12:16:12.369Z,-90.00
2023-02-17T12:17:13.055Z,-88.00